sensor_id;sensor_type;location;lat;lon;timestamp;P1;durP1;ratioP1;P2;durP2;ratioP2
49366;SDS011;35245;52.026;8.540;2023-08-20T00:01:23;16.58;;;10.25;;
49366;SDS011;35245;52.026;8.540;2023-08-20T00:03:53;14.60;;;9.27;;
49366;SDS011;35245;52.026;8.540;2023-08-20T00:06:21;12.38;;;8.50;;
49366;SDS011;35245;52.026;8.540;2023-08-20T00:08:49;12.82;;;8.65;;
49366;SDS011;35245;52.026;8.540;2023-08-20T00:11:16;14.07;;;8.40;;
49366;SDS011;35245;52.026;8.540;2023-08-20T00:13:45;13.98;;;8.73;;
49366;SDS011;35245;52.026;8.540;2023-08-20T00:16:13;11.27;;;8.15;;
49366;SDS011;35245;52.026;8.540;2023-08-20T00:18:40;13.93;;;8.27;;
49366;SDS011;35245;52.026;8.540;2023-08-20T00:21:08;9.65;;;6.97;;
49366;SDS011;35245;52.026;8.540;2023-08-20T00:23:36;9.75;;;6.90;;
49366;SDS011;35245;52.026;8.540;2023-08-20T00:26:04;9.18;;;5.85;;
49366;SDS011;35245;52.026;8.540;2023-08-20T00:28:32;11.10;;;6.22;;
49366;SDS011;35245;52.026;8.540;2023-08-20T00:31:00;12.10;;;7.40;;
49366;SDS011;35245;52.026;8.540;2023-08-20T00:33:28;12.93;;;7.55;;
49366;SDS011;35245;52.026;8.540;2023-08-20T00:35:55;11.32;;;6.22;;
49366;SDS011;35245;52.026;8.540;2023-08-20T00:38:22;10.90;;;6.40;;
49366;SDS011;35245;52.026;8.540;2023-08-20T00:40:49;9.50;;;6.05;;
49366;SDS011;35245;52.026;8.540;2023-08-20T00:43:17;9.85;;;6.28;;
49366;SDS011;35245;52.026;8.540;2023-08-20T00:45:44;11.50;;;5.80;;
49366;SDS011;35245;52.026;8.540;2023-08-20T00:48:12;9.93;;;6.18;;
49366;SDS011;35245;52.026;8.540;2023-08-20T00:50:40;10.88;;;5.65;;
49366;SDS011;35245;52.026;8.540;2023-08-20T00:53:08;10.30;;;5.50;;
49366;SDS011;35245;52.026;8.540;2023-08-20T00:55:38;9.15;;;5.45;;
49366;SDS011;35245;52.026;8.540;2023-08-20T00:58:05;11.63;;;6.50;;
49366;SDS011;35245;52.026;8.540;2023-08-20T01:00:32;9.80;;;6.00;;
49366;SDS011;35245;52.026;8.540;2023-08-20T01:02:59;11.68;;;6.30;;
49366;SDS011;35245;52.026;8.540;2023-08-20T01:05:28;7.22;;;5.53;;
49366;SDS011;35245;52.026;8.540;2023-08-20T01:08:10;9.70;;;5.32;;
49366;SDS011;35245;52.026;8.540;2023-08-20T01:10:53;8.93;;;5.63;;
49366;SDS011;35245;52.026;8.540;2023-08-20T01:13:27;13.27;;;6.32;;
49366;SDS011;35245;52.026;8.540;2023-08-20T01:15:54;16.45;;;6.75;;
49366;SDS011;35245;52.026;8.540;2023-08-20T01:18:22;8.85;;;5.78;;
49366;SDS011;35245;52.026;8.540;2023-08-20T01:20:53;9.05;;;5.78;;
49366;SDS011;35245;52.026;8.540;2023-08-20T01:23:35;10.68;;;5.88;;
49366;SDS011;35245;52.026;8.540;2023-08-20T01:26:35;9.82;;;6.30;;
49366;SDS011;35245;52.026;8.540;2023-08-20T01:29:24;9.90;;;5.90;;
49366;SDS011;35245;52.026;8.540;2023-08-20T01:31:52;10.88;;;7.10;;
49366;SDS011;35245;52.026;8.540;2023-08-20T01:34:20;11.25;;;6.43;;
49366;SDS011;35245;52.026;8.540;2023-08-20T01:36:48;10.10;;;6.10;;
49366;SDS011;35245;52.026;8.540;2023-08-20T01:39:15;11.85;;;6.50;;
49366;SDS011;35245;52.026;8.540;2023-08-20T01:41:43;12.60;;;7.35;;
49366;SDS011;35245;52.026;8.540;2023-08-20T01:44:10;11.18;;;7.10;;
49366;SDS011;35245;52.026;8.540;2023-08-20T01:46:39;13.35;;;7.05;;
49366;SDS011;35245;52.026;8.540;2023-08-20T01:49:06;8.95;;;5.93;;
49366;SDS011;35245;52.026;8.540;2023-08-20T01:51:33;14.27;;;7.15;;
49366;SDS011;35245;52.026;8.540;2023-08-20T01:54:01;10.27;;;6.03;;
49366;SDS011;35245;52.026;8.540;2023-08-20T01:56:29;12.35;;;7.03;;
49366;SDS011;35245;52.026;8.540;2023-08-20T01:58:56;9.98;;;5.63;;
49366;SDS011;35245;52.026;8.540;2023-08-20T02:01:23;9.75;;;5.53;;
49366;SDS011;35245;52.026;8.540;2023-08-20T02:03:52;9.38;;;6.32;;
49366;SDS011;35245;52.026;8.540;2023-08-20T02:06:19;12.18;;;5.82;;
49366;SDS011;35245;52.026;8.540;2023-08-20T02:08:46;8.30;;;6.03;;
49366;SDS011;35245;52.026;8.540;2023-08-20T02:11:13;14.60;;;6.60;;
49366;SDS011;35245;52.026;8.540;2023-08-20T02:13:40;10.80;;;6.10;;
49366;SDS011;35245;52.026;8.540;2023-08-20T02:16:07;12.50;;;7.20;;
49366;SDS011;35245;52.026;8.540;2023-08-20T02:18:35;11.80;;;6.72;;
49366;SDS011;35245;52.026;8.540;2023-08-20T02:21:03;15.13;;;7.07;;
49366;SDS011;35245;52.026;8.540;2023-08-20T02:23:30;16.27;;;8.02;;
49366;SDS011;35245;52.026;8.540;2023-08-20T02:25:57;11.00;;;6.95;;
49366;SDS011;35245;52.026;8.540;2023-08-20T02:28:25;11.50;;;7.47;;
49366;SDS011;35245;52.026;8.540;2023-08-20T02:30:52;10.48;;;7.05;;
49366;SDS011;35245;52.026;8.540;2023-08-20T02:33:19;12.63;;;7.25;;
49366;SDS011;35245;52.026;8.540;2023-08-20T02:35:46;13.10;;;7.70;;
49366;SDS011;35245;52.026;8.540;2023-08-20T02:38:15;10.88;;;7.68;;
49366;SDS011;35245;52.026;8.540;2023-08-20T02:40:42;13.98;;;8.02;;
49366;SDS011;35245;52.026;8.540;2023-08-20T02:43:09;12.65;;;7.93;;
49366;SDS011;35245;52.026;8.540;2023-08-20T02:45:40;11.38;;;6.75;;
49366;SDS011;35245;52.026;8.540;2023-08-20T02:48:08;15.23;;;7.93;;
49366;SDS011;35245;52.026;8.540;2023-08-20T02:50:35;11.05;;;7.30;;
49366;SDS011;35245;52.026;8.540;2023-08-20T02:53:02;11.07;;;7.57;;
49366;SDS011;35245;52.026;8.540;2023-08-20T02:55:31;14.43;;;8.15;;
49366;SDS011;35245;52.026;8.540;2023-08-20T02:58:00;12.30;;;7.00;;
49366;SDS011;35245;52.026;8.540;2023-08-20T03:00:28;11.02;;;7.30;;
49366;SDS011;35245;52.026;8.540;2023-08-20T03:02:56;12.73;;;7.60;;
49366;SDS011;35245;52.026;8.540;2023-08-20T03:05:23;13.20;;;6.95;;
49366;SDS011;35245;52.026;8.540;2023-08-20T03:07:50;13.90;;;7.00;;
49366;SDS011;35245;52.026;8.540;2023-08-20T03:10:17;12.85;;;6.40;;
49366;SDS011;35245;52.026;8.540;2023-08-20T03:12:46;11.90;;;6.80;;
49366;SDS011;35245;52.026;8.540;2023-08-20T03:15:13;11.18;;;6.65;;
49366;SDS011;35245;52.026;8.540;2023-08-20T03:17:40;11.05;;;6.70;;
49366;SDS011;35245;52.026;8.540;2023-08-20T03:20:08;13.20;;;7.25;;
49366;SDS011;35245;52.026;8.540;2023-08-20T03:22:36;11.32;;;6.85;;
49366;SDS011;35245;52.026;8.540;2023-08-20T03:25:04;12.52;;;7.07;;
49366;SDS011;35245;52.026;8.540;2023-08-20T03:27:32;14.48;;;6.93;;
49366;SDS011;35245;52.026;8.540;2023-08-20T03:30:01;13.63;;;7.15;;
49366;SDS011;35245;52.026;8.540;2023-08-20T03:32:30;11.45;;;7.55;;
49366;SDS011;35245;52.026;8.540;2023-08-20T03:34:57;12.13;;;6.70;;
49366;SDS011;35245;52.026;8.540;2023-08-20T03:37:25;12.45;;;6.43;;
49366;SDS011;35245;52.026;8.540;2023-08-20T03:39:52;12.18;;;7.35;;
49366;SDS011;35245;52.026;8.540;2023-08-20T03:42:19;12.98;;;6.68;;
49366;SDS011;35245;52.026;8.540;2023-08-20T03:44:46;12.18;;;7.18;;
49366;SDS011;35245;52.026;8.540;2023-08-20T03:47:14;9.57;;;6.85;;
49366;SDS011;35245;52.026;8.540;2023-08-20T03:49:45;11.70;;;6.88;;
49366;SDS011;35245;52.026;8.540;2023-08-20T03:52:12;9.88;;;6.13;;
49366;SDS011;35245;52.026;8.540;2023-08-20T03:54:40;10.23;;;6.18;;
49366;SDS011;35245;52.026;8.540;2023-08-20T03:57:07;11.90;;;7.60;;
49366;SDS011;35245;52.026;8.540;2023-08-20T03:59:34;9.25;;;7.00;;
49366;SDS011;35245;52.026;8.540;2023-08-20T04:02:01;16.83;;;7.70;;
49366;SDS011;35245;52.026;8.540;2023-08-20T04:04:30;15.98;;;7.68;;
49366;SDS011;35245;52.026;8.540;2023-08-20T04:06:57;14.50;;;7.60;;
49366;SDS011;35245;52.026;8.540;2023-08-20T04:09:24;14.88;;;7.40;;
49366;SDS011;35245;52.026;8.540;2023-08-20T04:11:51;12.38;;;8.07;;
49366;SDS011;35245;52.026;8.540;2023-08-20T04:14:18;13.18;;;7.35;;
49366;SDS011;35245;52.026;8.540;2023-08-20T04:16:45;12.48;;;7.45;;
49366;SDS011;35245;52.026;8.540;2023-08-20T04:19:13;12.70;;;7.60;;
49366;SDS011;35245;52.026;8.540;2023-08-20T04:21:41;12.25;;;7.15;;
49366;SDS011;35245;52.026;8.540;2023-08-20T04:24:08;11.23;;;7.90;;
49366;SDS011;35245;52.026;8.540;2023-08-20T04:26:35;12.65;;;7.50;;
49366;SDS011;35245;52.026;8.540;2023-08-20T04:29:02;11.45;;;7.28;;
49366;SDS011;35245;52.026;8.540;2023-08-20T04:31:30;13.93;;;8.07;;
49366;SDS011;35245;52.026;8.540;2023-08-20T04:33:57;13.98;;;7.43;;
49366;SDS011;35245;52.026;8.540;2023-08-20T04:36:25;10.25;;;7.38;;
49366;SDS011;35245;52.026;8.540;2023-08-20T04:38:53;11.65;;;7.43;;
49366;SDS011;35245;52.026;8.540;2023-08-20T04:41:20;11.98;;;7.40;;
49366;SDS011;35245;52.026;8.540;2023-08-20T04:43:47;13.70;;;7.93;;
49366;SDS011;35245;52.026;8.540;2023-08-20T04:46:14;10.95;;;7.03;;
49366;SDS011;35245;52.026;8.540;2023-08-20T04:48:42;12.15;;;6.93;;
49366;SDS011;35245;52.026;8.540;2023-08-20T04:51:09;9.98;;;6.03;;
49366;SDS011;35245;52.026;8.540;2023-08-20T04:53:36;10.95;;;5.97;;
49366;SDS011;35245;52.026;8.540;2023-08-20T04:56:04;12.15;;;6.72;;
49366;SDS011;35245;52.026;8.540;2023-08-20T04:58:31;11.73;;;6.15;;
49366;SDS011;35245;52.026;8.540;2023-08-20T05:00:58;9.45;;;5.82;;
49366;SDS011;35245;52.026;8.540;2023-08-20T05:03:25;11.43;;;5.80;;
49366;SDS011;35245;52.026;8.540;2023-08-20T05:05:52;10.18;;;5.60;;
49366;SDS011;35245;52.026;8.540;2023-08-20T05:08:19;9.70;;;5.15;;
49366;SDS011;35245;52.026;8.540;2023-08-20T05:10:46;9.65;;;5.03;;
49366;SDS011;35245;52.026;8.540;2023-08-20T05:13:17;7.20;;;4.32;;
49366;SDS011;35245;52.026;8.540;2023-08-20T05:15:46;9.80;;;4.68;;
49366;SDS011;35245;52.026;8.540;2023-08-20T05:18:13;9.15;;;5.03;;
49366;SDS011;35245;52.026;8.540;2023-08-20T05:20:40;8.65;;;5.13;;
49366;SDS011;35245;52.026;8.540;2023-08-20T05:23:07;9.82;;;5.38;;
49366;SDS011;35245;52.026;8.540;2023-08-20T05:25:35;11.00;;;4.60;;
49366;SDS011;35245;52.026;8.540;2023-08-20T05:28:03;8.07;;;4.75;;
49366;SDS011;35245;52.026;8.540;2023-08-20T05:30:31;12.45;;;4.40;;
49366;SDS011;35245;52.026;8.540;2023-08-20T05:32:59;7.38;;;4.10;;
49366;SDS011;35245;52.026;8.540;2023-08-20T05:35:26;7.15;;;3.85;;
49366;SDS011;35245;52.026;8.540;2023-08-20T05:37:54;6.82;;;3.67;;
49366;SDS011;35245;52.026;8.540;2023-08-20T05:40:21;7.68;;;4.22;;
49366;SDS011;35245;52.026;8.540;2023-08-20T05:42:48;7.10;;;4.20;;
49366;SDS011;35245;52.026;8.540;2023-08-20T05:45:15;4.75;;;3.50;;
49366;SDS011;35245;52.026;8.540;2023-08-20T05:47:44;8.25;;;4.10;;
49366;SDS011;35245;52.026;8.540;2023-08-20T05:50:11;6.70;;;3.35;;
49366;SDS011;35245;52.026;8.540;2023-08-20T05:52:38;7.28;;;3.40;;
49366;SDS011;35245;52.026;8.540;2023-08-20T05:55:05;9.98;;;3.33;;
49366;SDS011;35245;52.026;8.540;2023-08-20T05:57:33;7.88;;;3.83;;
49366;SDS011;35245;52.026;8.540;2023-08-20T06:00:02;8.77;;;3.67;;
49366;SDS011;35245;52.026;8.540;2023-08-20T06:02:30;7.95;;;3.47;;
49366;SDS011;35245;52.026;8.540;2023-08-20T06:04:58;6.20;;;3.40;;
49366;SDS011;35245;52.026;8.540;2023-08-20T06:07:26;8.25;;;3.65;;
49366;SDS011;35245;52.026;8.540;2023-08-20T06:09:53;13.82;;;4.10;;
49366;SDS011;35245;52.026;8.540;2023-08-20T06:12:20;11.15;;;4.28;;
49366;SDS011;35245;52.026;8.540;2023-08-20T06:14:47;6.05;;;3.22;;
49366;SDS011;35245;52.026;8.540;2023-08-20T06:17:14;6.70;;;3.33;;
49366;SDS011;35245;52.026;8.540;2023-08-20T06:19:42;10.20;;;3.70;;
49366;SDS011;35245;52.026;8.540;2023-08-20T06:22:12;6.50;;;3.10;;
49366;SDS011;35245;52.026;8.540;2023-08-20T06:24:39;9.07;;;3.40;;
49366;SDS011;35245;52.026;8.540;2023-08-20T06:27:06;6.60;;;3.17;;
49366;SDS011;35245;52.026;8.540;2023-08-20T06:29:33;6.65;;;3.10;;
49366;SDS011;35245;52.026;8.540;2023-08-20T06:32:00;6.35;;;3.10;;
49366;SDS011;35245;52.026;8.540;2023-08-20T06:34:27;6.32;;;3.28;;
49366;SDS011;35245;52.026;8.540;2023-08-20T06:36:54;8.35;;;3.17;;
49366;SDS011;35245;52.026;8.540;2023-08-20T06:39:23;7.38;;;3.63;;
49366;SDS011;35245;52.026;8.540;2023-08-20T06:41:50;9.32;;;3.70;;
49366;SDS011;35245;52.026;8.540;2023-08-20T06:44:17;8.27;;;4.22;;
49366;SDS011;35245;52.026;8.540;2023-08-20T06:46:44;7.47;;;3.95;;
49366;SDS011;35245;52.026;8.540;2023-08-20T06:49:11;8.93;;;5.03;;
49366;SDS011;35245;52.026;8.540;2023-08-20T06:51:38;6.70;;;4.35;;
49366;SDS011;35245;52.026;8.540;2023-08-20T06:54:06;7.88;;;4.25;;
49366;SDS011;35245;52.026;8.540;2023-08-20T06:56:34;5.57;;;4.32;;
49366;SDS011;35245;52.026;8.540;2023-08-20T06:59:02;10.05;;;4.80;;
49366;SDS011;35245;52.026;8.540;2023-08-20T07:01:29;7.18;;;4.20;;
49366;SDS011;35245;52.026;8.540;2023-08-20T07:03:56;7.57;;;4.20;;
49366;SDS011;35245;52.026;8.540;2023-08-20T07:06:24;9.43;;;5.18;;
49366;SDS011;35245;52.026;8.540;2023-08-20T07:08:51;8.40;;;5.07;;
49366;SDS011;35245;52.026;8.540;2023-08-20T07:11:18;8.07;;;4.63;;
49366;SDS011;35245;52.026;8.540;2023-08-20T07:13:47;9.73;;;4.70;;
49366;SDS011;35245;52.026;8.540;2023-08-20T07:16:14;9.68;;;5.20;;
49366;SDS011;35245;52.026;8.540;2023-08-20T07:18:41;7.30;;;4.80;;
49366;SDS011;35245;52.026;8.540;2023-08-20T07:21:08;8.68;;;4.88;;
49366;SDS011;35245;52.026;8.540;2023-08-20T07:23:35;8.20;;;4.93;;
49366;SDS011;35245;52.026;8.540;2023-08-20T07:26:06;8.48;;;5.22;;
49366;SDS011;35245;52.026;8.540;2023-08-20T07:28:37;10.18;;;5.45;;
49366;SDS011;35245;52.026;8.540;2023-08-20T07:31:24;9.30;;;6.07;;
49366;SDS011;35245;52.026;8.540;2023-08-20T07:33:52;7.55;;;5.50;;
49366;SDS011;35245;52.026;8.540;2023-08-20T07:36:21;10.90;;;6.07;;
49366;SDS011;35245;52.026;8.540;2023-08-20T07:38:49;7.97;;;4.93;;
49366;SDS011;35245;52.026;8.540;2023-08-20T07:41:17;8.25;;;5.05;;
49366;SDS011;35245;52.026;8.540;2023-08-20T07:43:45;10.00;;;5.90;;
49366;SDS011;35245;52.026;8.540;2023-08-20T07:46:13;9.00;;;6.10;;
49366;SDS011;35245;52.026;8.540;2023-08-20T07:48:42;7.72;;;5.53;;
49366;SDS011;35245;52.026;8.540;2023-08-20T07:51:09;9.10;;;6.63;;
49366;SDS011;35245;52.026;8.540;2023-08-20T07:53:38;8.25;;;6.93;;
49366;SDS011;35245;52.026;8.540;2023-08-20T07:56:05;13.25;;;7.78;;
49366;SDS011;35245;52.026;8.540;2023-08-20T07:58:32;11.40;;;7.90;;
49366;SDS011;35245;52.026;8.540;2023-08-20T08:00:59;10.27;;;8.25;;
49366;SDS011;35245;52.026;8.540;2023-08-20T08:03:26;10.88;;;7.97;;
49366;SDS011;35245;52.026;8.540;2023-08-20T08:05:55;11.20;;;9.27;;
49366;SDS011;35245;52.026;8.540;2023-08-20T08:08:22;12.63;;;11.00;;
49366;SDS011;35245;52.026;8.540;2023-08-20T08:10:50;15.52;;;11.23;;
49366;SDS011;35245;52.026;8.540;2023-08-20T08:13:18;14.52;;;10.98;;
49366;SDS011;35245;52.026;8.540;2023-08-20T08:15:46;12.27;;;9.23;;
49366;SDS011;35245;52.026;8.540;2023-08-20T08:18:14;10.43;;;8.07;;
49366;SDS011;35245;52.026;8.540;2023-08-20T08:20:41;11.50;;;9.43;;
49366;SDS011;35245;52.026;8.540;2023-08-20T08:23:10;13.18;;;9.68;;
49366;SDS011;35245;52.026;8.540;2023-08-20T08:25:37;12.73;;;9.20;;
49366;SDS011;35245;52.026;8.540;2023-08-20T08:28:04;11.98;;;9.45;;
49366;SDS011;35245;52.026;8.540;2023-08-20T08:30:32;14.80;;;12.15;;
49366;SDS011;35245;52.026;8.540;2023-08-20T08:32:59;15.50;;;11.95;;
49366;SDS011;35245;52.026;8.540;2023-08-20T08:35:26;13.65;;;11.48;;
49366;SDS011;35245;52.026;8.540;2023-08-20T08:37:53;12.05;;;10.07;;
49366;SDS011;35245;52.026;8.540;2023-08-20T08:40:22;12.05;;;9.73;;
49366;SDS011;35245;52.026;8.540;2023-08-20T08:42:50;14.35;;;11.30;;
49366;SDS011;35245;52.026;8.540;2023-08-20T08:45:18;10.70;;;9.32;;
49366;SDS011;35245;52.026;8.540;2023-08-20T08:47:46;14.52;;;9.60;;
49366;SDS011;35245;52.026;8.540;2023-08-20T08:50:14;10.85;;;9.52;;
49366;SDS011;35245;52.026;8.540;2023-08-20T08:52:41;11.07;;;9.02;;
49366;SDS011;35245;52.026;8.540;2023-08-20T08:55:11;13.57;;;9.05;;
49366;SDS011;35245;52.026;8.540;2023-08-20T08:57:39;10.07;;;7.88;;
49366;SDS011;35245;52.026;8.540;2023-08-20T09:00:06;10.45;;;8.68;;
49366;SDS011;35245;52.026;8.540;2023-08-20T09:02:35;11.52;;;8.02;;
49366;SDS011;35245;52.026;8.540;2023-08-20T09:05:02;11.52;;;8.32;;
49366;SDS011;35245;52.026;8.540;2023-08-20T09:07:31;11.15;;;8.13;;
49366;SDS011;35245;52.026;8.540;2023-08-20T09:09:58;10.10;;;6.88;;
49366;SDS011;35245;52.026;8.540;2023-08-20T09:12:26;8.30;;;6.40;;
49366;SDS011;35245;52.026;8.540;2023-08-20T09:14:54;8.23;;;6.32;;
49366;SDS011;35245;52.026;8.540;2023-08-20T09:17:25;6.75;;;5.60;;
49366;SDS011;35245;52.026;8.540;2023-08-20T09:19:54;7.82;;;5.78;;
49366;SDS011;35245;52.026;8.540;2023-08-20T09:22:22;6.70;;;5.60;;
49366;SDS011;35245;52.026;8.540;2023-08-20T09:24:54;8.95;;;5.40;;
49366;SDS011;35245;52.026;8.540;2023-08-20T09:27:22;7.47;;;5.20;;
49366;SDS011;35245;52.026;8.540;2023-08-20T09:29:49;7.55;;;5.68;;
49366;SDS011;35245;52.026;8.540;2023-08-20T09:32:20;7.22;;;5.18;;
49366;SDS011;35245;52.026;8.540;2023-08-20T09:34:48;9.05;;;5.72;;
49366;SDS011;35245;52.026;8.540;2023-08-20T09:37:17;7.05;;;5.40;;
49366;SDS011;35245;52.026;8.540;2023-08-20T09:39:46;7.35;;;5.32;;
49366;SDS011;35245;52.026;8.540;2023-08-20T09:42:13;8.18;;;5.45;;
49366;SDS011;35245;52.026;8.540;2023-08-20T09:44:41;8.65;;;5.75;;
49366;SDS011;35245;52.026;8.540;2023-08-20T09:47:11;11.40;;;5.68;;
49366;SDS011;35245;52.026;8.540;2023-08-20T09:49:41;7.40;;;4.97;;
49366;SDS011;35245;52.026;8.540;2023-08-20T09:52:11;6.47;;;4.90;;
49366;SDS011;35245;52.026;8.540;2023-08-20T09:54:50;6.88;;;5.00;;
49366;SDS011;35245;52.026;8.540;2023-08-20T09:57:27;6.97;;;5.20;;
49366;SDS011;35245;52.026;8.540;2023-08-20T10:00:00;7.47;;;5.60;;
49366;SDS011;35245;52.026;8.540;2023-08-20T10:02:30;7.43;;;5.72;;
49366;SDS011;35245;52.026;8.540;2023-08-20T10:05:00;7.03;;;5.47;;
49366;SDS011;35245;52.026;8.540;2023-08-20T10:07:28;7.18;;;5.20;;
49366;SDS011;35245;52.026;8.540;2023-08-20T10:09:57;7.10;;;5.90;;
49366;SDS011;35245;52.026;8.540;2023-08-20T10:12:26;6.72;;;5.18;;
49366;SDS011;35245;52.026;8.540;2023-08-20T10:14:54;9.05;;;5.20;;
49366;SDS011;35245;52.026;8.540;2023-08-20T10:17:23;6.68;;;5.38;;
49366;SDS011;35245;52.026;8.540;2023-08-20T10:19:50;6.55;;;4.78;;
49366;SDS011;35245;52.026;8.540;2023-08-20T10:22:20;6.40;;;4.32;;
49366;SDS011;35245;52.026;8.540;2023-08-20T10:24:47;6.75;;;4.43;;
49366;SDS011;35245;52.026;8.540;2023-08-20T10:27:25;6.93;;;3.80;;
49366;SDS011;35245;52.026;8.540;2023-08-20T10:29:54;5.60;;;3.60;;
49366;SDS011;35245;52.026;8.540;2023-08-20T10:35:10;3.65;;;3.03;;
49366;SDS011;35245;52.026;8.540;2023-08-20T10:37:39;4.97;;;3.45;;
49366;SDS011;35245;52.026;8.540;2023-08-20T10:43:26;6.15;;;4.38;;
49366;SDS011;35245;52.026;8.540;2023-08-20T10:46:16;5.90;;;4.50;;
49366;SDS011;35245;52.026;8.540;2023-08-20T10:48:47;5.22;;;4.35;;
49366;SDS011;35245;52.026;8.540;2023-08-20T10:51:16;5.38;;;4.45;;
49366;SDS011;35245;52.026;8.540;2023-08-20T10:54:03;5.35;;;3.83;;
49366;SDS011;35245;52.026;8.540;2023-08-20T10:56:39;5.40;;;4.25;;
49366;SDS011;35245;52.026;8.540;2023-08-20T10:59:09;6.35;;;3.97;;
49366;SDS011;35245;52.026;8.540;2023-08-20T11:01:40;6.22;;;4.43;;
49366;SDS011;35245;52.026;8.540;2023-08-20T11:04:11;6.47;;;4.78;;
49366;SDS011;35245;52.026;8.540;2023-08-20T11:06:39;5.40;;;4.10;;
49366;SDS011;35245;52.026;8.540;2023-08-20T11:09:08;5.68;;;4.25;;
49366;SDS011;35245;52.026;8.540;2023-08-20T11:11:37;5.25;;;4.05;;
49366;SDS011;35245;52.026;8.540;2023-08-20T11:14:05;6.68;;;4.47;;
49366;SDS011;35245;52.026;8.540;2023-08-20T11:16:34;6.05;;;4.85;;
49366;SDS011;35245;52.026;8.540;2023-08-20T11:19:01;7.95;;;5.15;;
49366;SDS011;35245;52.026;8.540;2023-08-20T11:21:33;6.82;;;5.78;;
49366;SDS011;35245;52.026;8.540;2023-08-20T11:24:01;9.60;;;6.07;;
49366;SDS011;35245;52.026;8.540;2023-08-20T11:26:30;9.05;;;6.40;;
49366;SDS011;35245;52.026;8.540;2023-08-20T11:28:57;9.40;;;7.30;;
49366;SDS011;35245;52.026;8.540;2023-08-20T11:31:24;9.57;;;7.18;;
49366;SDS011;35245;52.026;8.540;2023-08-20T11:33:52;7.03;;;5.93;;
49366;SDS011;35245;52.026;8.540;2023-08-20T11:36:19;6.82;;;5.35;;
49366;SDS011;35245;52.026;8.540;2023-08-20T11:38:49;5.82;;;4.90;;
49366;SDS011;35245;52.026;8.540;2023-08-20T11:41:17;5.55;;;4.60;;
49366;SDS011;35245;52.026;8.540;2023-08-20T11:43:46;6.90;;;5.07;;
49366;SDS011;35245;52.026;8.540;2023-08-20T11:46:13;6.28;;;5.05;;
49366;SDS011;35245;52.026;8.540;2023-08-20T11:51:28;6.25;;;5.47;;
49366;SDS011;35245;52.026;8.540;2023-08-20T11:53:56;7.45;;;5.10;;
49366;SDS011;35245;52.026;8.540;2023-08-20T11:56:23;6.57;;;5.38;;
49366;SDS011;35245;52.026;8.540;2023-08-20T11:58:58;7.95;;;5.65;;
49366;SDS011;35245;52.026;8.540;2023-08-20T12:01:29;7.72;;;5.55;;
49366;SDS011;35245;52.026;8.540;2023-08-20T12:03:59;8.50;;;5.40;;
49366;SDS011;35245;52.026;8.540;2023-08-20T12:06:28;7.32;;;5.00;;
49366;SDS011;35245;52.026;8.540;2023-08-20T12:08:56;6.30;;;4.63;;
49366;SDS011;35245;52.026;8.540;2023-08-20T12:11:24;8.52;;;5.00;;
49366;SDS011;35245;52.026;8.540;2023-08-20T12:13:53;6.78;;;4.50;;
49366;SDS011;35245;52.026;8.540;2023-08-20T12:16:21;5.47;;;4.15;;
49366;SDS011;35245;52.026;8.540;2023-08-20T12:18:50;5.90;;;4.65;;
49366;SDS011;35245;52.026;8.540;2023-08-20T12:21:17;6.75;;;4.97;;
49366;SDS011;35245;52.026;8.540;2023-08-20T12:23:44;6.70;;;4.32;;
49366;SDS011;35245;52.026;8.540;2023-08-20T12:26:11;5.72;;;4.97;;
49366;SDS011;35245;52.026;8.540;2023-08-20T12:28:39;5.95;;;4.90;;
49366;SDS011;35245;52.026;8.540;2023-08-20T12:31:08;7.15;;;5.07;;
49366;SDS011;35245;52.026;8.540;2023-08-20T12:33:35;6.45;;;5.05;;
49366;SDS011;35245;52.026;8.540;2023-08-20T12:36:02;8.23;;;5.28;;
49366;SDS011;35245;52.026;8.540;2023-08-20T12:38:30;6.13;;;4.90;;
49366;SDS011;35245;52.026;8.540;2023-08-20T12:40:59;6.32;;;5.18;;
49366;SDS011;35245;52.026;8.540;2023-08-20T12:43:26;6.07;;;4.60;;
49366;SDS011;35245;52.026;8.540;2023-08-20T12:45:53;5.45;;;4.43;;
49366;SDS011;35245;52.026;8.540;2023-08-20T12:48:22;7.43;;;5.47;;
49366;SDS011;35245;52.026;8.540;2023-08-20T12:50:49;6.28;;;5.38;;
49366;SDS011;35245;52.026;8.540;2023-08-20T12:53:16;6.32;;;5.22;;
49366;SDS011;35245;52.026;8.540;2023-08-20T12:55:44;6.35;;;4.88;;
49366;SDS011;35245;52.026;8.540;2023-08-20T12:58:11;7.55;;;5.20;;
49366;SDS011;35245;52.026;8.540;2023-08-20T13:00:38;5.93;;;5.05;;
49366;SDS011;35245;52.026;8.540;2023-08-20T13:03:06;7.03;;;5.32;;
49366;SDS011;35245;52.026;8.540;2023-08-20T13:05:36;4.82;;;4.30;;
49366;SDS011;35245;52.026;8.540;2023-08-20T13:08:04;6.28;;;4.70;;
49366;SDS011;35245;52.026;8.540;2023-08-20T13:10:33;5.40;;;4.50;;
49366;SDS011;35245;52.026;8.540;2023-08-20T13:13:01;5.80;;;4.88;;
49366;SDS011;35245;52.026;8.540;2023-08-20T13:15:29;5.35;;;4.05;;
49366;SDS011;35245;52.026;8.540;2023-08-20T13:17:58;6.43;;;4.55;;
49366;SDS011;35245;52.026;8.540;2023-08-20T13:20:25;6.35;;;4.80;;
49366;SDS011;35245;52.026;8.540;2023-08-20T13:22:54;5.80;;;4.50;;
49366;SDS011;35245;52.026;8.540;2023-08-20T13:25:21;5.75;;;4.07;;
49366;SDS011;35245;52.026;8.540;2023-08-20T13:27:49;4.75;;;4.18;;
49366;SDS011;35245;52.026;8.540;2023-08-20T13:30:16;5.45;;;3.95;;
49366;SDS011;35245;52.026;8.540;2023-08-20T13:32:44;5.85;;;4.13;;
49366;SDS011;35245;52.026;8.540;2023-08-20T13:35:11;4.93;;;4.20;;
49366;SDS011;35245;52.026;8.540;2023-08-20T13:37:39;6.60;;;4.60;;
49366;SDS011;35245;52.026;8.540;2023-08-20T13:40:09;4.97;;;4.07;;
49366;SDS011;35245;52.026;8.540;2023-08-20T13:45:04;5.15;;;4.47;;
49366;SDS011;35245;52.026;8.540;2023-08-20T13:47:33;5.23;;;4.13;;
49366;SDS011;35245;52.026;8.540;2023-08-20T13:50:00;4.57;;;3.70;;
49366;SDS011;35245;52.026;8.540;2023-08-20T13:52:29;4.23;;;3.83;;
49366;SDS011;35245;52.026;8.540;2023-08-20T13:54:56;5.22;;;4.15;;
49366;SDS011;35245;52.026;8.540;2023-08-20T13:57:25;6.28;;;4.43;;
49366;SDS011;35245;52.026;8.540;2023-08-20T13:59:52;5.15;;;4.20;;
49366;SDS011;35245;52.026;8.540;2023-08-20T14:02:19;4.85;;;4.18;;
49366;SDS011;35245;52.026;8.540;2023-08-20T14:04:46;4.97;;;4.03;;
49366;SDS011;35245;52.026;8.540;2023-08-20T14:07:14;4.85;;;4.20;;
49366;SDS011;35245;52.026;8.540;2023-08-20T14:09:41;7.53;;;4.85;;
49366;SDS011;35245;52.026;8.540;2023-08-20T14:12:08;5.75;;;5.05;;
49366;SDS011;35245;52.026;8.540;2023-08-20T14:14:36;5.47;;;4.63;;
49366;SDS011;35245;52.026;8.540;2023-08-20T14:17:04;4.90;;;4.40;;
49366;SDS011;35245;52.026;8.540;2023-08-20T14:19:31;5.65;;;4.75;;
49366;SDS011;35245;52.026;8.540;2023-08-20T14:21:58;6.30;;;4.80;;
49366;SDS011;35245;52.026;8.540;2023-08-20T14:24:25;7.68;;;5.22;;
49366;SDS011;35245;52.026;8.540;2023-08-20T14:26:52;7.22;;;5.25;;
49366;SDS011;35245;52.026;8.540;2023-08-20T14:29:19;5.65;;;4.70;;
49366;SDS011;35245;52.026;8.540;2023-08-20T14:31:48;6.90;;;5.22;;
49366;SDS011;35245;52.026;8.540;2023-08-20T14:34:15;6.28;;;5.10;;
49366;SDS011;35245;52.026;8.540;2023-08-20T14:36:42;6.15;;;5.10;;
49366;SDS011;35245;52.026;8.540;2023-08-20T14:39:09;5.10;;;4.30;;
49366;SDS011;35245;52.026;8.540;2023-08-20T14:41:36;7.40;;;4.38;;
49366;SDS011;35245;52.026;8.540;2023-08-20T14:44:03;7.57;;;5.13;;
49366;SDS011;35245;52.026;8.540;2023-08-20T14:46:31;6.03;;;5.43;;
49366;SDS011;35245;52.026;8.540;2023-08-20T14:49:00;6.10;;;5.40;;
49366;SDS011;35245;52.026;8.540;2023-08-20T14:51:27;6.55;;;4.90;;
49366;SDS011;35245;52.026;8.540;2023-08-20T14:53:54;4.90;;;4.40;;
49366;SDS011;35245;52.026;8.540;2023-08-20T14:56:21;6.57;;;4.78;;
49366;SDS011;35245;52.026;8.540;2023-08-20T14:58:48;6.18;;;4.57;;
49366;SDS011;35245;52.026;8.540;2023-08-20T15:01:15;7.03;;;4.78;;